Time;durP1;ratioP1;P1;durP2;ratioP2;P2;SDS_P1;SDS_P2;PMS_P1;PMS_P2;Temp;Humidity;BMP_temperature;BMP_pressure;BME280_temperature;BME280_humidity;BME280_pressure;Samples;Min_cycle;Max_cycle;Signal;HPM_P1;HPM_P2
2021/01/07 00:01:39;;;;;;;4.10;3.80;;;;;;;0.14;91.54;101975.91;6310506;28;20767;-77
2021/01/07 00:05:02;;;;;;;5.77;4.10;;;;;;;0.24;91.19;101968.81;6310149;28;20682;-77
2021/01/07 00:08:25;;;;;;;3.70;3.50;;;;;;;0.28;91.07;101967.63;6310266;28;20308;-77
2021/01/07 00:11:51;;;;;;;4.00;3.10;;;;;;;0.21;91.15;101972.63;6308500;28;20207;-77
2021/01/07 00:15:15;;;;;;;3.87;3.67;;;;;;;0.25;91.71;101962.50;6312524;28;20298;-77
2021/01/07 00:18:38;;;;;;;4.23;4.00;;;;;;;0.32;92.43;101963.69;6306948;28;20251;-77
2021/01/07 00:21:56;;;;;;;3.70;3.47;;;;;;;0.19;92.28;101962.97;6305047;28;20300;-77
2021/01/07 00:25:19;;;;;;;4.43;4.23;;;;;;;0.16;93.13;101968.59;6313124;28;20205;-77
2021/01/07 00:28:53;;;;;;;4.17;3.73;;;;;;;0.24;93.72;101955.41;6306118;28;20244;-77
2021/01/07 00:32:16;;;;;;;4.10;3.80;;;;;;;0.13;94.22;101960.81;6315127;28;20290;-77
2021/01/07 00:35:36;;;;;;;4.43;4.13;;;;;;;0.06;95.38;101948.81;6308975;28;20792;-78
2021/01/07 00:38:59;;;;;;;4.50;4.17;;;;;;;0.12;96.43;101951.03;6309637;28;20537;-78
2021/01/07 00:42:22;;;;;;;4.57;4.23;;;;;;;0.08;96.37;101954.94;6310575;28;20210;-77
2021/01/07 00:45:46;;;;;;;3.40;3.20;;;;;;;0.00;96.85;101948.34;6318741;28;20197;-78
2021/01/07 00:49:09;;;;;;;3.53;3.40;;;;;;;-0.10;96.48;101925.91;6305386;28;20730;-78
2021/01/07 00:52:32;;;;;;;4.30;4.00;;;;;;;0.04;96.92;101958.84;6311403;28;20243;-78
2021/01/07 00:55:56;;;;;;;4.17;3.80;;;;;;;0.04;96.57;101942.75;6295286;28;20212;-77
2021/01/07 00:59:20;;;;;;;3.67;3.43;;;;;;;-0.02;96.93;101939.56;6309237;28;20238;-76
2021/01/07 01:02:44;;;;;;;4.20;3.80;;;;;;;0.05;98.11;101939.09;6308776;28;20214;-78
2021/01/07 01:06:08;;;;;;;3.40;3.20;;;;;;;-0.03;98.09;101926.28;6313008;28;20288;-78
2021/01/07 01:09:26;;;;;;;4.33;4.03;;;;;;;-0.05;98.10;101934.44;6302007;28;20333;-77
2021/01/07 01:12:49;;;;;;;4.20;4.00;;;;;;;0.00;98.44;101932.25;6310105;28;20196;-77
2021/01/07 01:16:08;;;;;;;4.93;4.47;;;;;;;0.10;98.61;101934.22;6316095;28;20274;-77
2021/01/07 01:19:33;;;;;;;4.40;4.10;;;;;;;0.05;97.99;101933.72;6309071;28;20231;-78
2021/01/07 01:22:56;;;;;;;5.27;4.70;;;;;;;-0.02;98.22;101928.84;6314239;28;20686;-77
2021/01/07 01:26:19;;;;;;;4.10;3.80;;;;;;;-0.01;98.13;101930.56;6309812;28;20237;-77
2021/01/07 01:29:42;;;;;;;5.20;4.70;;;;;;;0.02;98.32;101923.22;6304896;28;20217;-76
2021/01/07 01:33:05;;;;;;;4.20;3.90;;;;;;;0.10;97.68;101923.47;6316734;28;20304;-77
2021/01/07 01:36:29;;;;;;;4.33;4.13;;;;;;;0.11;97.50;101917.09;6317139;28;20204;-77
2021/01/07 01:39:51;;;;;;;4.60;4.30;;;;;;;0.13;97.78;101909.81;6318366;28;20208;-77
2021/01/07 01:43:14;;;;;;;4.43;4.13;;;;;;;0.16;97.24;101920.28;6322490;28;20248;-77
2021/01/07 01:46:37;;;;;;;7.80;4.63;;;;;;;0.06;97.68;101903.22;6312357;28;20209;-78
2021/01/07 01:50:02;;;;;;;5.33;4.17;;;;;;;0.03;97.54;101887.38;6316920;28;20580;-78
2021/01/07 01:53:27;;;;;;;4.03;3.83;;;;;;;0.17;97.50;101900.53;6341386;28;20199;-78
2021/01/07 01:56:54;;;;;;;5.37;4.43;;;;;;;0.02;97.96;101874.94;6315108;28;20347;-77
2021/01/07 02:00:18;;;;;;;4.07;3.83;;;;;;;0.23;96.84;101897.34;6320649;28;20200;-77
2021/01/07 02:03:41;;;;;;;4.53;4.20;;;;;;;0.09;96.97;101866.25;6320059;28;20284;-77
2021/01/07 02:07:07;;;;;;;4.80;4.50;;;;;;;0.26;96.49;101891.72;6315479;28;20278;-77
2021/01/07 02:10:32;;;;;;;4.00;3.70;;;;;;;0.25;94.84;101881.97;6315492;28;21065;-78
2021/01/07 02:13:50;;;;;;;4.27;3.97;;;;;;;0.27;95.21;101888.06;6320835;28;20699;-76
2021/01/07 02:17:15;;;;;;;4.33;4.03;;;;;;;0.28;93.80;101879.03;6320395;28;20297;-78
2021/01/07 02:20:42;;;;;;;4.40;3.53;;;;;;;0.31;93.17;101874.25;6317221;28;20607;-78
2021/01/07 02:24:07;;;;;;;3.90;3.60;;;;;;;0.35;93.42;101862.31;6323213;28;20287;-77
2021/01/07 02:27:36;;;;;;;4.40;4.07;;;;;;;0.35;92.89;101866.81;6318337;28;20271;-77
2021/01/07 02:30:59;;;;;;;3.37;3.17;;;;;;;0.36;92.82;101868.53;6320256;28;20228;-77
2021/01/07 02:34:22;;;;;;;4.03;3.83;;;;;;;0.34;92.52;101857.03;6320802;28;20199;-77
2021/01/07 02:37:46;;;;;;;3.40;3.23;;;;;;;0.37;92.52;101870.22;6316573;28;20200;-78
2021/01/07 02:41:10;;;;;;;5.30;3.97;;;;;;;0.34;94.21;101862.41;6313524;28;20206;-77
2021/01/07 02:44:30;;;;;;;4.00;3.77;;;;;;;0.40;93.08;101853.88;6316436;28;20279;-77
2021/01/07 02:47:53;;;;;;;8.67;4.07;;;;;;;0.44;93.37;101849.94;6310588;28;20736;-78
2021/01/07 02:51:12;;;;;;;4.30;3.90;;;;;;;0.43;92.91;101842.88;6302034;28;20301;-77
2021/01/07 02:54:36;;;;;;;3.93;3.70;;;;;;;0.42;92.44;101835.78;6303532;28;20579;-77
2021/01/07 02:57:48;;;;;;;4.40;3.70;;;;;;;0.52;92.44;101842.09;6314876;28;20284;-77
2021/01/07 03:00:52;;;;;;;4.90;4.10;;;;;;;0.28;92.25;101803.88;6320514;28;20719;-78
2021/01/07 03:04:12;;;;;;;4.40;4.10;;;;;;;0.52;91.12;101836.72;6311854;28;20443;-77
2021/01/07 03:07:19;;;;;;;3.77;3.47;;;;;;;0.42;91.95;101830.41;6293774;28;20418;-77
2021/01/07 03:10:23;;;;;;;3.80;3.57;;;;;;;0.50;91.81;101823.44;6307216;28;20297;-78
2021/01/07 03:13:36;;;;;;;4.10;3.70;;;;;;;0.50;91.50;101818.06;6313080;28;20290;-77
2021/01/07 03:16:40;;;;;;;3.70;3.50;;;;;;;0.53;91.50;101833.06;6309175;28;20235;-77
2021/01/07 03:19:43;;;;;;;4.70;4.00;;;;;;;0.56;91.43;101822.94;6311156;28;20863;-77
2021/01/07 03:22:47;;;;;;;5.17;4.07;;;;;;;0.40;91.42;101816.28;6309942;28;20277;-78
2021/01/07 03:25:51;;;;;;;4.53;3.60;;;;;;;0.52;91.36;101821.47;6308042;28;20206;-76
2021/01/07 03:28:57;;;;;;;4.07;3.80;;;;;;;0.61;91.27;101828.78;6278063;28;20221;-76
2021/01/07 03:32:02;;;;;;;3.80;3.60;;;;;;;0.65;90.71;101815.91;6285985;28;20690;-77
2021/01/07 03:35:11;;;;;;;9.80;3.80;;;;;;;0.60;90.43;101812.78;6280427;28;20252;-77
2021/01/07 03:38:20;;;;;;;3.97;3.77;;;;;;;0.41;90.77;101785.78;6285437;28;20209;-77
2021/01/07 03:41:24;;;;;;;3.63;3.47;;;;;;;0.55;90.35;101806.94;6278743;28;20673;-77
2021/01/07 03:44:28;;;;;;;3.50;3.30;;;;;;;0.63;90.37;101812.50;6282943;28;20215;-77
2021/01/07 03:47:31;;;;;;;5.40;3.30;;;;;;;0.57;90.30;101807.66;6282945;28;20206;-77
2021/01/07 03:50:34;;;;;;;3.17;2.97;;;;;;;0.57;90.62;101807.66;6278897;28;20715;-77
2021/01/07 03:53:38;;;;;;;3.63;3.53;;;;;;;0.53;91.05;101816.97;6285436;28;20567;-77
2021/01/07 03:56:42;;;;;;;4.07;3.77;;;;;;;0.66;90.63;101812.25;6282427;28;20198;-77
2021/01/07 03:59:46;;;;;;;3.97;3.70;;;;;;;0.53;90.47;101787.41;6269018;28;20204;-77
2021/01/07 04:02:50;;;;;;;3.73;3.43;;;;;;;0.64;89.68;101798.13;6282301;28;20250;-77
2021/01/07 04:05:53;;;;;;;4.03;3.70;;;;;;;0.58;89.88;101793.25;6306849;28;20193;-78
2021/01/07 04:08:56;;;;;;;3.67;3.37;;;;;;;0.60;89.81;101802.03;6276615;28;20659;-78
2021/01/07 04:12:04;;;;;;;3.77;3.63;;;;;;;0.57;90.33;101791.53;6287422;28;20270;-78
2021/01/07 04:15:11;;;;;;;3.50;3.30;;;;;;;0.60;89.58;101786.78;6283872;28;20201;-77
2021/01/07 04:18:23;;;;;;;4.73;3.77;;;;;;;0.61;90.19;101782.25;6284606;28;20244;-77
2021/01/07 04:21:27;;;;;;;4.90;3.57;;;;;;;0.60;89.96;101785.91;6281334;28;20372;-77
2021/01/07 04:24:30;;;;;;;4.20;3.90;;;;;;;0.67;90.16;101776.34;6283882;28;20234;-77
2021/01/07 04:27:34;;;;;;;3.90;3.60;;;;;;;0.59;90.60;101785.06;6297378;28;20316;-77
2021/01/07 04:30:38;;;;;;;3.30;3.10;;;;;;;0.60;90.55;101769.81;6310116;28;20207;-77
2021/01/07 04:33:47;;;;;;;3.90;3.60;;;;;;;0.60;91.53;101764.44;6307114;28;20609;-77
2021/01/07 04:36:50;;;;;;;3.93;3.63;;;;;;;0.45;91.46;101728.13;6307036;28;20560;-78
2021/01/07 04:39:53;;;;;;;3.33;3.23;;;;;;;0.60;90.85;101764.44;6297427;28;20262;-77
2021/01/07 04:43:00;;;;;;;3.70;3.50;;;;;;;0.53;91.86;101763.25;6314082;28;20192;-78
2021/01/07 04:46:03;;;;;;;3.53;3.43;;;;;;;0.61;91.44;101760.78;6305766;28;20194;-78
2021/01/07 04:49:08;;;;;;;3.33;3.23;;;;;;;0.39;91.39;101717.91;6284358;28;20201;-78
2021/01/07 04:52:16;;;;;;;3.60;3.40;;;;;;;0.62;91.91;101754.41;6313772;28;20225;-77
2021/01/07 04:55:22;;;;;;;4.07;3.57;;;;;;;0.54;92.11;101754.19;6296280;28;20205;-78
2021/01/07 04:58:34;;;;;;;3.80;3.70;;;;;;;0.48;93.20;101738.63;6305635;28;20205;-78
2021/01/07 05:01:38;;;;;;;3.10;3.00;;;;;;;0.47;92.25;101742.28;6306008;28;20594;-77
2021/01/07 05:04:49;;;;;;;6.03;3.33;;;;;;;0.36;92.26;101718.19;6305353;28;20239;-77
2021/01/07 05:07:53;;;;;;;4.43;3.43;;;;;;;0.58;92.37;101739.53;6304658;28;20330;-78
2021/01/07 05:10:57;;;;;;;3.90;3.70;;;;;;;0.55;92.96;101739.81;6325328;28;20257;-77
2021/01/07 05:14:02;;;;;;;3.67;3.43;;;;;;;0.53;93.04;101741.78;6304371;28;20195;-78
2021/01/07 05:17:09;;;;;;;3.73;3.43;;;;;;;0.49;93.53;101734.94;6303471;28;20452;-77
2021/01/07 05:20:14;;;;;;;4.10;3.80;;;;;;;0.23;94.97;101688.84;6316428;28;20194;-78
2021/01/07 05:23:30;;;;;;;4.03;3.73;;;;;;;0.47;95.21;101736.91;6308191;28;20200;-78
2021/01/07 05:26:33;;;;;;;4.20;3.90;;;;;;;0.42;96.08;101717.66;6304952;28;20215;-77
2021/01/07 05:30:02;;;;;;;3.97;3.67;;;;;;;0.47;95.38;101723.47;6310138;28;20187;-77
2021/01/07 05:33:10;;;;;;;3.60;3.40;;;;;;;0.40;95.82;101731.22;6298873;28;20225;-77
2021/01/07 05:36:21;;;;;;;3.27;3.17;;;;;;;0.45;95.77;101728.13;6295563;28;20655;-78
2021/01/07 05:39:33;;;;;;;3.60;3.30;;;;;;;0.38;95.17;101716.22;6311145;28;20235;-77
2021/01/07 05:42:38;;;;;;;4.43;4.07;;;;;;;0.55;95.54;101718.31;6300226;28;20192;-77
2021/01/07 05:45:43;;;;;;;3.80;3.50;;;;;;;0.53;95.56;101720.28;6298647;28;20656;-77
2021/01/07 05:48:53;;;;;;;4.87;3.43;;;;;;;0.55;94.76;101718.31;6311774;28;20205;-77
2021/01/07 05:51:56;;;;;;;3.90;3.30;;;;;;;0.51;94.58;101706.97;6317336;28;20217;-78
2021/01/07 05:55:00;;;;;;;4.00;3.70;;;;;;;0.50;94.06;101693.69;6304796;28;20328;-77
2021/01/07 05:58:04;;;;;;;3.90;3.70;;;;;;;0.62;94.42;101698.84;6322125;28;20191;-78
2021/01/07 06:01:12;;;;;;;4.13;3.93;;;;;;;0.61;94.04;101707.91;6306894;28;20464;-77
2021/01/07 06:04:21;;;;;;;3.57;3.27;;;;;;;0.59;93.94;101703.66;6320303;28;20284;-78
2021/01/07 06:07:28;;;;;;;3.97;3.77;;;;;;;0.56;94.46;101706.59;6319730;28;20268;-78
2021/01/07 06:10:32;;;;;;;3.90;3.57;;;;;;;0.62;93.57;101700.69;6322620;28;20202;-78
2021/01/07 06:13:35;;;;;;;3.77;3.57;;;;;;;0.60;93.74;101708.88;6314003;28;20200;-79
2021/01/07 06:16:43;;;;;;;3.90;3.50;;;;;;;0.54;93.46;101684.38;6324409;28;20210;-79
2021/01/07 06:19:52;;;;;;;4.07;3.77;;;;;;;0.61;93.28;101701.69;6318920;28;20406;-77
2021/01/07 06:22:56;;;;;;;4.30;3.90;;;;;;;0.58;93.16;101696.56;6316279;28;20206;-78
2021/01/07 06:26:20;;;;;;;3.37;3.20;;;;;;;0.53;93.47;101688.06;6306123;28;20198;-78
2021/01/07 06:29:23;;;;;;;3.97;3.70;;;;;;;0.67;92.91;101701.13;6283138;28;20199;-77
2021/01/07 06:32:29;;;;;;;3.60;3.43;;;;;;;0.49;92.51;101666.00;6292346;28;20209;-78
2021/01/07 06:35:37;;;;;;;3.63;3.50;;;;;;;0.66;92.98;101691.41;6288181;28;20289;-77
2021/01/07 06:38:52;;;;;;;3.77;3.57;;;;;;;0.76;93.01;101695.00;6275190;28;20234;-77
2021/01/07 06:41:58;;;;;;;4.87;3.87;;;;;;;0.74;92.82;101691.59;6288045;28;20239;-78
2021/01/07 06:45:03;;;;;;;3.23;3.17;;;;;;;0.84;92.57;101680.88;6280384;28;21289;-77
2021/01/07 06:48:26;;;;;;;3.80;3.60;;;;;;;0.84;92.26;101681.75;6287362;28;20222;-77
2021/01/07 06:51:30;;;;;;;4.07;3.87;;;;;;;0.80;92.85;101685.66;6281325;28;20234;-77
2021/01/07 06:54:36;;;;;;;4.27;3.87;;;;;;;0.73;93.01;101689.88;6270462;28;20199;-76
2021/01/07 06:57:43;;;;;;;4.10;3.80;;;;;;;0.70;93.48;101695.50;6283330;28;20206;-76
2021/01/07 07:00:49;;;;;;;4.10;3.70;;;;;;;0.70;93.99;101694.66;6277354;28;20210;-76
2021/01/07 07:04:06;;;;;;;3.97;3.80;;;;;;;0.69;93.81;101683.09;6283333;28;20563;-77
2021/01/07 07:07:44;;;;;;;3.63;3.53;;;;;;;0.72;93.76;101681.97;6289301;28;20195;-78
2021/01/07 07:10:57;;;;;;;4.07;3.77;;;;;;;0.71;94.44;101685.63;6280161;28;20247;-78
2021/01/07 07:14:06;;;;;;;3.83;3.47;;;;;;;0.68;95.11;101694.81;6287658;28;20198;-78
2021/01/07 07:17:12;;;;;;;3.87;3.67;;;;;;;0.62;95.03;101681.88;6284552;28;20222;-77
2021/01/07 07:20:19;;;;;;;3.47;3.33;;;;;;;0.69;94.65;101682.22;6285403;28;20196;-77
2021/01/07 07:23:34;;;;;;;3.60;3.50;;;;;;;0.74;94.35;101685.38;6303979;28;20282;-78
2021/01/07 07:26:39;;;;;;;3.90;3.70;;;;;;;0.74;94.51;101690.72;6289540;28;20217;-77
2021/01/07 07:29:45;;;;;;;4.17;3.93;;;;;;;0.76;94.20;101689.63;6309847;28;20253;-79
2021/01/07 07:32:54;;;;;;;4.30;4.10;;;;;;;0.83;95.21;101706.91;6306306;28;20347;-78
2021/01/07 07:36:04;;;;;;;4.33;3.93;;;;;;;0.84;95.05;101703.25;6305819;28;20376;-78
2021/01/07 07:39:10;;;;;;;4.70;4.20;;;;;;;0.71;95.29;101674.88;6308654;28;20621;-78
2021/01/07 07:42:18;;;;;;;3.90;3.73;;;;;;;0.68;96.95;101684.06;6308428;28;20399;-78
2021/01/07 07:45:23;;;;;;;3.90;3.70;;;;;;;0.74;97.52;101713.09;6310467;28;20194;-78
2021/01/07 07:48:34;;;;;;;4.50;4.10;;;;;;;0.70;98.16;101717.00;6309994;28;20224;-77
2021/01/07 07:51:39;;;;;;;4.57;4.17;;;;;;;0.71;99.12;101713.34;6305736;28;20624;-78
2021/01/07 07:54:43;;;;;;;4.57;4.30;;;;;;;0.77;98.96;101712.78;6309664;28;20682;-79
2021/01/07 07:57:48;;;;;;;10.97;5.30;;;;;;;0.72;99.20;101714.19;6310877;28;20202;-77
2021/01/07 08:00:53;;;;;;;6.63;4.43;;;;;;;0.66;99.39;101704.81;6302505;28;20658;-77
2021/01/07 08:04:12;;;;;;;4.80;4.40;;;;;;;0.77;99.43;101707.41;6311860;28;20178;-76
2021/01/07 08:07:21;;;;;;;6.17;4.63;;;;;;;0.55;100.00;101672.66;6305161;28;20189;-77
2021/01/07 08:10:25;;;;;;;4.47;3.70;;;;;;;0.75;98.81;101709.38;6310039;28;20359;-77
2021/01/07 08:13:34;;;;;;;4.77;3.80;;;;;;;0.75;99.48;101714.75;6312981;28;20253;-77
2021/01/07 08:16:38;;;;;;;4.87;4.37;;;;;;;0.62;100.00;101714.97;6313826;28;20211;-78
2021/01/07 08:19:47;;;;;;;4.70;4.30;;;;;;;0.64;100.00;101704.13;6310907;28;20186;-78
2021/01/07 08:22:52;;;;;;;4.43;4.13;;;;;;;0.60;100.00;101705.34;6305695;28;20233;-79
2021/01/07 08:25:56;;;;;;;4.70;4.30;;;;;;;0.59;100.00;101698.28;6316440;28;20538;-78
2021/01/07 08:29:01;;;;;;;5.07;4.63;;;;;;;0.65;100.00;101700.44;6319449;28;20216;-80
2021/01/07 08:32:12;;;;;;;4.80;4.40;;;;;;;0.68;100.00;101696.63;6316993;28;20262;-78
2021/01/07 08:35:25;;;;;;;4.20;3.90;;;;;;;0.67;100.00;101706.50;6310910;28;20213;-77
2021/01/07 08:38:39;;;;;;;4.17;3.97;;;;;;;0.55;100.00;101694.16;6306293;28;20204;-77
2021/01/07 08:41:44;;;;;;;5.07;4.70;;;;;;;0.69;100.00;101696.50;6309110;28;20202;-76
2021/01/07 08:44:59;;;;;;;5.07;4.77;;;;;;;0.86;99.89;101698.56;6315120;28;20599;-77
2021/01/07 08:48:06;;;;;;;4.70;4.30;;;;;;;0.81;99.96;101694.59;6308985;28;20208;-78
2021/01/07 08:51:18;;;;;;;5.20;4.80;;;;;;;0.78;99.84;101693.00;6322961;28;20236;-77
2021/01/07 08:54:25;;;;;;;4.67;4.27;;;;;;;0.84;99.32;101692.50;6311617;28;20292;-77
2021/01/07 08:57:28;;;;;;;4.50;4.20;;;;;;;0.82;99.38;101689.09;6302127;28;20526;-77
2021/01/07 09:00:32;;;;;;;4.83;4.43;;;;;;;0.89;99.08;101684.88;6310392;28;20293;-77
2021/01/07 09:03:54;;;;;;;4.60;4.30;;;;;;;0.80;99.43;101696.41;6308870;28;20564;-77
2021/01/07 09:07:05;;;;;;;5.30;4.17;;;;;;;0.82;99.91;101683.72;6309121;28;20190;-77
2021/01/07 09:10:24;;;;;;;4.07;3.87;;;;;;;0.83;99.89;101684.53;6309887;28;20249;-78
2021/01/07 09:13:35;;;;;;;4.80;4.20;;;;;;;0.88;100.00;101693.91;6305453;28;20683;-77
2021/01/07 09:16:40;;;;;;;4.67;4.27;;;;;;;0.91;100.00;101682.91;6312451;28;20277;-77
2021/01/07 09:19:47;;;;;;;4.20;4.00;;;;;;;0.74;100.00;101670.09;6308229;28;20652;-77
2021/01/07 09:23:01;;;;;;;4.53;4.23;;;;;;;0.93;100.00;101675.56;6314232;28;20458;-77
2021/01/07 09:26:05;;;;;;;3.67;3.47;;;;;;;0.96;100.00;101669.06;6310468;28;20206;-76
2021/01/07 09:29:15;;;;;;;4.37;4.07;;;;;;;0.97;100.00;101671.63;6306405;28;20688;-78
2021/01/07 09:32:22;;;;;;;4.33;3.90;;;;;;;1.05;99.60;101671.78;6309396;28;20218;-77
2021/01/07 09:35:29;;;;;;;4.27;4.03;;;;;;;1.03;99.16;101671.06;6325768;28;20208;-77
2021/01/07 09:38:44;;;;;;;5.20;4.27;;;;;;;1.00;99.14;101668.66;6303250;28;20197;-77
2021/01/07 09:41:48;;;;;;;4.57;4.27;;;;;;;0.98;99.69;101667.94;6302199;28;20210;-77
2021/01/07 09:44:51;;;;;;;4.20;3.90;;;;;;;1.04;99.59;101666.53;6308020;28;21195;-77
2021/01/07 09:47:55;;;;;;;5.37;4.10;;;;;;;0.98;99.33;101651.81;6310389;28;20197;-77
2021/01/07 09:50:59;;;;;;;4.80;3.73;;;;;;;1.09;99.42;101665.16;6306817;28;20234;-77
2021/01/07 09:54:02;;;;;;;4.37;4.07;;;;;;;1.18;99.88;101658.94;6307942;28;20675;-77
2021/01/07 09:57:08;;;;;;;4.53;4.23;;;;;;;1.14;98.79;101660.22;6315389;28;20678;-77
2021/01/07 10:00:14;;;;;;;3.70;3.53;;;;;;;1.10;98.76;101656.13;6314310;28;20766;-78
2021/01/07 10:03:40;;;;;;;5.17;4.60;;;;;;;1.20;99.41;101662.38;6315433;28;20198;-77
2021/01/07 10:06:44;;;;;;;4.63;4.20;;;;;;;1.13;99.24;101661.19;6309361;28;20676;-78
2021/01/07 10:09:49;;;;;;;4.13;3.90;;;;;;;1.07;99.42;101645.63;6317346;28;20226;-78
2021/01/07 10:12:53;;;;;;;7.27;5.30;;;;;;;1.01;100.00;101640.78;6314322;28;20280;-78
2021/01/07 10:15:58;;;;;;;9.37;5.37;;;;;;;1.01;99.55;101635.44;6315978;28;20226;-78
2021/01/07 10:19:02;;;;;;;7.10;5.47;;;;;;;0.89;100.00;101606.97;6313776;28;20381;-78
2021/01/07 10:22:12;;;;;;;12.20;8.43;;;;;;;1.08;99.67;101624.97;6313373;28;20873;-78
2021/01/07 10:25:18;;;;;;;7.53;6.40;;;;;;;1.14;99.01;101633.34;6309525;28;20538;-78
2021/01/07 10:28:29;;;;;;;6.70;5.67;;;;;;;1.22;98.66;101633.50;6295191;28;20231;-78
2021/01/07 10:31:33;;;;;;;5.30;4.90;;;;;;;1.18;98.85;101626.69;6288963;28;20210;-78
2021/01/07 10:34:40;;;;;;;5.90;5.50;;;;;;;1.20;98.99;101623.88;6290447;28;20509;-78
2021/01/07 10:37:47;;;;;;;4.67;3.80;;;;;;;1.20;98.71;101622.06;6286504;28;20254;-77
2021/01/07 10:40:52;;;;;;;3.13;3.03;;;;;;;1.22;98.47;101613.84;6300981;28;20182;-78
2021/01/07 10:43:59;;;;;;;3.53;3.40;;;;;;;1.25;98.45;101611.75;6292629;28;20207;-77
2021/01/07 10:47:05;;;;;;;3.63;3.33;;;;;;;1.24;98.30;101614.53;6289984;28;20215;-77
2021/01/07 10:50:17;;;;;;;3.60;3.30;;;;;;;1.22;97.90;101612.00;6284841;28;20230;-77
2021/01/07 10:54:07;;;;;;;3.37;3.20;;;;;;;1.31;98.81;101604.09;6283358;28;20225;-77
2021/01/07 10:57:44;;;;;;;4.07;3.77;;;;;;;1.15;98.02;101572.38;6279622;28;20195;-78
2021/01/07 11:01:02;;;;;;;4.30;3.87;;;;;;;1.36;98.59;101607.22;6274434;28;20207;-78
2021/01/07 11:04:33;;;;;;;3.63;3.43;;;;;;;1.42;98.31;101595.91;6288020;28;20217;-77
2021/01/07 11:07:45;;;;;;;2.90;2.70;;;;;;;1.31;98.23;101593.34;6291150;28;20550;-78
2021/01/07 11:10:51;;;;;;;4.30;3.20;;;;;;;1.27;98.97;101599.00;6298367;28;20245;-78
2021/01/07 11:13:58;;;;;;;3.43;2.90;;;;;;;1.34;99.20;101593.91;6292145;28;20724;-77
2021/01/07 11:17:11;;;;;;;5.10;3.47;;;;;;;1.24;98.83;101580.47;6291350;28;20203;-78
2021/01/07 11:20:17;;;;;;;3.00;2.90;;;;;;;1.40;98.76;101595.19;6292784;28;20218;-77
2021/01/07 11:23:36;;;;;;;3.60;3.50;;;;;;;1.51;97.83;101585.16;6288331;28;20205;-77
2021/01/07 11:26:41;;;;;;;3.40;3.20;;;;;;;1.39;97.76;101553.19;6291467;28;20200;-77
2021/01/07 11:29:45;;;;;;;4.53;3.97;;;;;;;1.56;97.51;101592.81;6310639;28;20585;-77
2021/01/07 11:32:51;;;;;;;3.57;3.47;;;;;;;1.53;97.17;101576.94;6307494;28;20510;-78
2021/01/07 11:35:57;;;;;;;3.67;3.40;;;;;;;1.56;97.06;101577.53;6315393;28;20194;-77
2021/01/07 11:39:05;;;;;;;3.60;3.23;;;;;;;1.64;97.09;101574.13;6306615;28;20242;-77
2021/01/07 11:42:31;;;;;;;3.73;2.80;;;;;;;1.51;97.25;101562.81;6314638;28;20261;-77
2021/01/07 11:45:37;;;;;;;2.63;2.53;;;;;;;1.46;97.93;101575.81;6314588;28;20558;-78
2021/01/07 11:48:58;;;;;;;2.30;2.20;;;;;;;1.50;97.93;101577.22;6336437;28;20192;-78
2021/01/07 11:52:02;;;;;;;2.50;2.40;;;;;;;1.50;97.95;101566.47;6327208;28;20377;-78
2021/01/07 11:55:11;;;;;;;2.27;2.03;;;;;;;1.50;98.48;101561.09;6308978;28;20207;-75
2021/01/07 11:58:23;;;;;;;2.10;2.00;;;;;;;1.40;97.91;101560.22;6311593;28;20665;-78
2021/01/07 12:01:30;;;;;;;2.30;2.20;;;;;;;1.40;98.37;101554.84;6312328;28;20569;-78
2021/01/07 12:04:42;;;;;;;2.70;2.00;;;;;;;1.41;98.04;101556.56;6315283;28;20197;-75
2021/01/07 12:08:01;;;;;;;1.93;1.70;;;;;;;1.34;98.77;101556.25;6317894;28;20205;-78
2021/01/07 12:11:13;;;;;;;1.87;1.80;;;;;;;1.30;98.50;101537.88;6311835;28;20200;-78
2021/01/07 12:14:25;;;;;;;1.60;1.60;;;;;;;1.26;99.49;101531.91;6315733;28;20241;-78
2021/01/07 12:17:29;;;;;;;2.20;2.10;;;;;;;1.33;98.89;101545.66;6313815;28;20203;-77
2021/01/07 12:20:43;;;;;;;2.10;1.83;;;;;;;1.30;98.84;101543.25;6308154;28;20197;-78
2021/01/07 12:23:47;;;;;;;3.07;2.40;;;;;;;1.26;98.97;101526.53;6309448;28;20263;-78
2021/01/07 12:26:51;;;;;;;2.50;2.40;;;;;;;1.40;97.81;101533.34;6315185;28;20251;-78
2021/01/07 12:29:54;;;;;;;1.83;1.83;;;;;;;1.31;98.04;101507.31;6310909;28;20192;-78
2021/01/07 12:33:14;;;;;;;2.07;1.97;;;;;;;1.37;97.74;101520.19;6304767;28;20810;-77
2021/01/07 12:36:27;;;;;;;2.60;2.50;;;;;;;1.28;97.54;101520.03;6305819;28;20624;-78
2021/01/07 12:39:35;;;;;;;3.10;2.80;;;;;;;1.29;97.82;101515.50;6313902;28;20216;-78
2021/01/07 12:42:42;;;;;;;1.97;1.80;;;;;;;1.34;97.85;101528.53;6320410;28;20200;-78
2021/01/07 12:45:52;;;;;;;1.90;1.80;;;;;;;1.35;97.89;101519.47;6314648;28;20198;-78
2021/01/07 12:48:57;;;;;;;2.60;1.70;;;;;;;1.38;97.80;101530.81;6307883;28;20198;-77
2021/01/07 12:52:03;;;;;;;2.10;1.90;;;;;;;1.26;97.87;101516.66;6312575;28;20218;-78
2021/01/07 12:55:13;;;;;;;1.77;1.77;;;;;;;1.20;98.46;101522.59;6315635;28;20763;-77
2021/01/07 12:58:24;;;;;;;1.73;1.60;;;;;;;1.27;98.20;101521.03;6317708;28;20570;-78
2021/01/07 13:01:38;;;;;;;2.30;1.67;;;;;;;1.30;98.74;101522.59;6312317;28;20194;-79
2021/01/07 13:04:54;;;;;;;2.30;1.90;;;;;;;1.32;98.67;101522.44;6311695;28;20635;-77
2021/01/07 13:08:01;;;;;;;3.80;1.60;;;;;;;1.25;99.29;101528.41;6312823;28;20203;-77
2021/01/07 13:11:09;;;;;;;1.57;1.57;;;;;;;1.28;99.25;101520.03;6306293;28;20221;-80
2021/01/07 13:14:16;;;;;;;1.83;1.73;;;;;;;1.12;99.76;101487.50;6306996;28;20221;-78
2021/01/07 13:17:19;;;;;;;1.60;1.60;;;;;;;1.34;99.08;101528.53;6305244;28;20202;-78
2021/01/07 13:20:23;;;;;;;2.63;2.00;;;;;;;1.17;99.09;101496.00;6307009;28;21150;-79
2021/01/07 13:23:33;;;;;;;1.70;1.70;;;;;;;1.35;98.91;101516.78;6308172;28;20206;-78
2021/01/07 13:26:36;;;;;;;4.00;1.60;;;;;;;1.37;98.83;101520.19;6309987;28;20221;-78
2021/01/07 13:29:40;;;;;;;1.40;1.30;;;;;;;1.30;99.32;101511.00;6300478;28;20283;-78
2021/01/07 13:32:49;;;;;;;2.87;1.97;;;;;;;1.41;98.67;101503.66;6302552;28;20222;-77
2021/01/07 13:35:57;;;;;;;1.90;1.80;;;;;;;1.37;98.85;101512.13;6304820;28;20222;-76
2021/01/07 13:39:22;;;;;;;1.67;1.60;;;;;;;1.34;98.85;101485.50;6305979;28;20285;-78
2021/01/07 13:42:29;;;;;;;1.93;1.83;;;;;;;1.44;98.11;101500.66;6300603;28;20685;-78
2021/01/07 13:45:34;;;;;;;3.13;1.93;;;;;;;1.31;98.55;101512.69;6304324;28;20205;-78
2021/01/07 13:48:44;;;;;;;1.70;1.70;;;;;;;1.42;98.63;101504.47;6304897;28;20675;-78
2021/01/07 13:51:50;;;;;;;1.60;1.60;;;;;;;1.35;98.29;101506.03;6304137;28;20216;-77
2021/01/07 13:54:59;;;;;;;2.53;2.27;;;;;;;1.32;98.43;101503.63;6306948;28;20311;-77
2021/01/07 13:58:02;;;;;;;1.90;1.80;;;;;;;1.36;98.44;101505.91;6311130;28;20212;-78
2021/01/07 14:01:24;;;;;;;2.37;1.80;;;;;;;1.39;97.71;101510.16;6318813;28;20594;-79
2021/01/07 14:04:44;;;;;;;2.67;1.70;;;;;;;1.33;97.80;101505.34;6316607;28;20202;-80
2021/01/07 14:07:55;;;;;;;1.83;1.73;;;;;;;1.41;98.28;101492.91;6313084;28;20194;-78
2021/01/07 14:11:04;;;;;;;1.50;1.50;;;;;;;1.43;97.79;101490.03;6306768;28;20214;-79
2021/01/07 14:14:11;;;;;;;2.07;1.90;;;;;;;1.49;97.67;101502.94;6306304;28;20563;-79
2021/01/07 14:17:21;;;;;;;4.33;1.70;;;;;;;1.51;96.50;101503.63;6315264;28;20209;-78
2021/01/07 14:20:28;;;;;;;2.17;1.97;;;;;;;1.53;96.33;101507.03;6308286;28;20253;-76
2021/01/07 14:23:39;;;;;;;2.33;1.87;;;;;;;1.56;96.15;101501.38;6326031;28;20268;-78
2021/01/07 14:26:54;;;;;;;1.97;1.87;;;;;;;1.61;95.66;101499.09;6308106;28;20266;-78
2021/01/07 14:30:03;;;;;;;2.10;2.03;;;;;;;1.54;96.13;101498.81;6303752;28;20260;-76
2021/01/07 14:33:19;;;;;;;2.07;2.07;;;;;;;1.56;95.73;101490.59;6311307;28;20324;-77
2021/01/07 14:36:26;;;;;;;1.70;1.70;;;;;;;1.56;96.31;101494.16;6315138;28;20284;-78
2021/01/07 14:39:32;;;;;;;2.10;1.70;;;;;;;1.63;96.01;101502.47;6318614;28;20221;-79
2021/01/07 14:42:40;;;;;;;3.17;2.40;;;;;;;1.11;97.11;101456.22;6317614;28;20199;-77
2021/01/07 14:45:44;;;;;;;3.90;2.27;;;;;;;1.46;97.73;101500.53;6310422;28;20666;-78
2021/01/07 14:48:56;;;;;;;1.90;1.80;;;;;;;1.51;97.81;101504.50;6306787;28;20258;-76
2021/01/07 14:52:05;;;;;;;2.00;1.90;;;;;;;1.48;97.55;101509.28;6314135;28;20251;-79
2021/01/07 14:55:17;;;;;;;1.90;1.80;;;;;;;1.53;98.00;101507.03;6319779;28;20218;-76
2021/01/07 14:58:46;;;;;;;2.30;1.90;;;;;;;1.56;97.91;101501.38;6316588;28;20212;-75